Time;durP1;ratioP1;P1;durP2;ratioP2;P2;SDS_P1;SDS_P2;PMS_P1;PMS_P2;Temp;Humidity;BMP_temperature;BMP_pressure;BME280_temperature;BME280_humidity;BME280_pressure;Samples;Min_cycle;Max_cycle;Signal;HPM_P1;HPM_P2
2021/01/10 00:02:14;;;;;;;12.15;5.53;;;-0.20;99.90;;;;;;5029222;28;20038;-65
2021/01/10 00:04:39;;;;;;;11.63;6.05;;;-0.20;99.90;;;;;;5027713;28;20034;-65
2021/01/10 00:07:05;;;;;;;14.27;5.80;;;-0.20;99.90;;;;;;5029754;28;20056;-63
2021/01/10 00:09:30;;;;;;;10.15;5.80;;;-0.30;99.90;;;;;;5029404;28;20026;-62
2021/01/10 00:11:56;;;;;;;15.18;6.22;;;-0.30;99.90;;;;;;5026839;28;20057;-64
2021/01/10 00:14:21;;;;;;;16.70;5.80;;;-0.40;99.90;;;;;;5021394;28;20036;-64
2021/01/10 00:16:47;;;;;;;16.65;5.60;;;-0.40;99.90;;;;;;5027094;28;20509;-63
2021/01/10 00:19:12;;;;;;;13.63;5.72;;;-0.40;99.90;;;;;;5027062;28;20037;-65
2021/01/10 00:21:38;;;;;;;16.70;6.05;;;-0.50;99.90;;;;;;5025690;28;20490;-63
2021/01/10 00:24:05;;;;;;;15.40;5.93;;;-0.50;99.90;;;;;;5025677;28;20064;-63
2021/01/10 00:26:35;;;;;;;17.02;6.10;;;-0.60;99.90;;;;;;5021273;28;20034;-63
2021/01/10 00:29:03;;;;;;;26.33;7.53;;;-0.60;99.90;;;;;;5026647;28;20502;-63
2021/01/10 00:31:35;;;;;;;15.15;5.05;;;-0.60;99.90;;;;;;5019108;28;20567;-63
2021/01/10 00:34:02;;;;;;;10.73;5.18;;;-0.60;99.90;;;;;;5025698;28;20124;-65
2021/01/10 00:36:37;;;;;;;13.40;4.93;;;-0.60;99.90;;;;;;5026709;28;20299;-63
2021/01/10 00:39:04;;;;;;;16.92;6.25;;;-0.60;99.90;;;;;;5027298;28;20156;-65
2021/01/10 00:41:36;;;;;;;9.75;5.03;;;-0.70;99.90;;;;;;5029069;28;20128;-64
2021/01/10 00:44:02;;;;;;;10.75;5.38;;;-0.70;99.90;;;;;;5020808;28;20041;-63
2021/01/10 00:46:28;;;;;;;12.65;5.35;;;-0.70;99.90;;;;;;5021531;28;20091;-63
2021/01/10 00:48:53;;;;;;;13.93;5.30;;;-0.70;99.90;;;;;;5023730;28;20037;-64
2021/01/10 00:51:19;;;;;;;13.32;4.97;;;-0.70;99.90;;;;;;5026384;28;20072;-63
2021/01/10 00:53:44;;;;;;;14.95;5.78;;;-0.80;99.90;;;;;;5025593;28;20551;-63
2021/01/10 00:56:10;;;;;;;16.30;5.13;;;-0.80;99.90;;;;;;5023552;28;20094;-65
2021/01/10 00:58:35;;;;;;;15.93;5.72;;;-0.80;99.90;;;;;;5028149;28;20037;-64
2021/01/10 01:01:02;;;;;;;17.05;5.72;;;-0.80;99.90;;;;;;5022166;28;20056;-63
2021/01/10 01:03:27;;;;;;;17.75;5.50;;;-0.80;99.90;;;;;;5019120;28;20112;-63
2021/01/10 01:05:53;;;;;;;21.60;7.00;;;-0.80;99.90;;;;;;5019717;28;20172;-63
2021/01/10 01:08:18;;;;;;;9.25;5.05;;;-0.80;99.90;;;;;;5020350;28;20497;-63
2021/01/10 01:10:45;;;;;;;13.00;5.40;;;-0.80;99.90;;;;;;5017974;28;20029;-66
2021/01/10 01:13:11;;;;;;;15.35;5.55;;;-0.90;99.90;;;;;;5021281;28;20084;-63
2021/01/10 01:15:37;;;;;;;12.88;5.72;;;-0.90;99.90;;;;;;5018554;28;20090;-63
2021/01/10 01:18:02;;;;;;;16.80;6.03;;;-0.90;99.90;;;;;;5023602;28;20536;-64
2021/01/10 01:20:28;;;;;;;16.77;5.78;;;-0.90;99.90;;;;;;5025355;28;20064;-64
2021/01/10 01:22:53;;;;;;;20.15;5.88;;;-0.90;99.90;;;;;;5025983;28;20044;-64
2021/01/10 01:25:19;;;;;;;13.07;4.82;;;-0.90;99.90;;;;;;5019636;28;20452;-66
2021/01/10 01:27:44;;;;;;;16.83;5.43;;;-0.80;99.90;;;;;;5018986;28;20026;-63
2021/01/10 01:30:10;;;;;;;13.98;5.68;;;-0.70;99.90;;;;;;5021140;28;20045;-63
2021/01/10 01:32:36;;;;;;;17.58;5.70;;;-0.60;99.90;;;;;;5018177;28;20157;-63
2021/01/10 01:35:03;;;;;;;13.88;4.95;;;-0.40;99.90;;;;;;5021247;28;20472;-63
2021/01/10 01:37:28;;;;;;;10.82;4.80;;;-0.20;99.90;;;;;;5019106;28;20034;-64
2021/01/10 01:39:54;;;;;;;10.35;4.68;;;-0.10;99.90;;;;;;5020501;28;20108;-63
2021/01/10 01:42:19;;;;;;;14.43;5.20;;;0.00;99.90;;;;;;5019605;28;20397;-65
2021/01/10 01:44:45;;;;;;;23.48;6.05;;;0.00;99.90;;;;;;5018961;28;20042;-63
2021/01/10 01:47:17;;;;;;;15.13;5.57;;;0.00;99.90;;;;;;5020648;28;20041;-63
2021/01/10 01:49:43;;;;;;;8.77;4.18;;;0.10;99.90;;;;;;5021220;28;20030;-63
2021/01/10 01:52:08;;;;;;;13.38;4.60;;;0.10;99.90;;;;;;5017707;28;20041;-63
2021/01/10 01:54:35;;;;;;;14.63;5.78;;;0.00;99.90;;;;;;5021180;28;20080;-64
2021/01/10 01:57:01;;;;;;;13.18;4.70;;;0.00;99.90;;;;;;5017375;28;20026;-65
2021/01/10 01:59:26;;;;;;;11.50;4.43;;;-0.10;99.90;;;;;;5020470;28;20064;-65
2021/01/10 02:01:52;;;;;;;14.68;4.68;;;-0.10;99.90;;;;;;5018981;28;20057;-63
2021/01/10 02:04:27;;;;;;;9.85;5.15;;;-0.20;99.90;;;;;;5018673;28;20065;-67
2021/01/10 02:06:58;;;;;;;12.35;5.35;;;-0.20;99.90;;;;;;5034003;28;20095;-66
2021/01/10 02:09:26;;;;;;;11.35;5.00;;;-0.30;99.90;;;;;;5019348;28;20041;-63
2021/01/10 02:11:53;;;;;;;14.50;5.32;;;-0.30;99.90;;;;;;5019034;28;20033;-63
2021/01/10 02:14:22;;;;;;;10.95;5.22;;;-0.30;99.90;;;;;;5018652;28;20185;-62
2021/01/10 02:16:48;;;;;;;11.27;5.47;;;-0.30;99.90;;;;;;5019568;28;20049;-63
2021/01/10 02:19:35;;;;;;;12.35;4.80;;;-0.40;99.90;;;;;;5017928;28;20576;-63
2021/01/10 02:22:05;;;;;;;13.48;6.15;;;-0.40;99.90;;;;;;5017674;28;20048;-63
2021/01/10 02:24:34;;;;;;;12.20;4.68;;;-0.40;99.90;;;;;;5020426;28;20037;-63
2021/01/10 02:27:03;;;;;;;15.98;6.03;;;-0.40;99.90;;;;;;5017927;28;20041;-66
2021/01/10 02:29:29;;;;;;;12.10;5.13;;;-0.30;99.90;;;;;;5024651;28;20071;-63
2021/01/10 02:31:56;;;;;;;12.57;5.43;;;-0.30;99.90;;;;;;5043736;28;20129;-63
2021/01/10 02:34:22;;;;;;;13.13;4.80;;;-0.30;99.90;;;;;;5033700;28;20478;-63
2021/01/10 02:37:09;;;;;;;14.77;5.55;;;-0.20;99.90;;;;;;5032146;28;20034;-63
2021/01/10 02:40:13;;;;;;;13.73;5.45;;;-0.20;99.90;;;;;;5030970;28;20033;-65
2021/01/10 02:42:55;;;;;;;9.80;4.55;;;-0.10;99.90;;;;;;5024944;28;20063;-64
2021/01/10 02:45:23;;;;;;;18.27;5.40;;;-0.10;99.90;;;;;;5024413;28;20044;-64
2021/01/10 02:47:49;;;;;;;9.13;4.30;;;-0.10;99.90;;;;;;5029431;28;20030;-62
2021/01/10 02:50:18;;;;;;;12.90;4.57;;;-0.10;99.90;;;;;;5026456;28;20092;-65
2021/01/10 02:52:48;;;;;;;12.48;5.22;;;-0.10;99.90;;;;;;5025218;28;20033;-63
2021/01/10 02:55:14;;;;;;;17.60;5.00;;;-0.10;99.90;;;;;;5027128;28;20044;-63
2021/01/10 02:57:43;;;;;;;10.35;5.05;;;-0.10;99.90;;;;;;5022979;28;20075;-63
2021/01/10 03:00:12;;;;;;;9.23;4.30;;;-0.10;99.90;;;;;;5041279;28;20413;-65
2021/01/10 03:02:38;;;;;;;13.35;4.50;;;0.00;99.90;;;;;;5022349;28;20502;-63
2021/01/10 03:05:05;;;;;;;11.85;4.75;;;-0.10;99.90;;;;;;5026910;28;20060;-63
2021/01/10 03:07:35;;;;;;;8.40;4.32;;;-0.10;99.90;;;;;;5022997;28;20026;-63
2021/01/10 03:10:02;;;;;;;14.23;4.38;;;-0.10;99.90;;;;;;5042879;28;20124;-63
2021/01/10 03:12:28;;;;;;;11.00;3.70;;;-0.10;99.90;;;;;;5023464;28;20022;-63
2021/01/10 03:14:54;;;;;;;11.00;4.50;;;-0.10;99.90;;;;;;5025716;28;20420;-62
2021/01/10 03:17:33;;;;;;;7.57;4.47;;;-0.10;99.90;;;;;;5024522;28;20489;-66
2021/01/10 03:19:59;;;;;;;18.20;4.63;;;-0.10;99.90;;;;;;5022904;28;20033;-63
2021/01/10 03:22:27;;;;;;;12.38;4.22;;;-0.10;99.90;;;;;;5024968;28;20164;-64
2021/01/10 03:24:52;;;;;;;9.55;4.65;;;0.00;99.90;;;;;;5023078;28;20065;-63
2021/01/10 03:27:18;;;;;;;9.63;3.92;;;0.00;99.90;;;;;;5024204;28;20491;-63
2021/01/10 03:29:43;;;;;;;11.00;4.55;;;0.10;99.90;;;;;;5022737;28;20124;-64
2021/01/10 03:32:09;;;;;;;12.52;3.80;;;0.10;99.90;;;;;;5021316;28;20083;-63
2021/01/10 03:34:34;;;;;;;13.35;3.83;;;0.10;99.90;;;;;;5026518;28;20030;-64
2021/01/10 03:37:00;;;;;;;11.20;4.18;;;0.10;99.90;;;;;;5025937;28;20205;-63
2021/01/10 03:39:26;;;;;;;14.98;4.80;;;0.10;99.90;;;;;;5023244;28;20129;-63
2021/01/10 03:41:51;;;;;;;10.70;4.13;;;0.10;99.90;;;;;;5021822;28;20112;-63
2021/01/10 03:44:17;;;;;;;10.50;3.67;;;0.10;99.90;;;;;;5021141;28;20041;-64
2021/01/10 03:46:42;;;;;;;13.18;4.70;;;0.20;99.90;;;;;;5024137;28;20122;-64
2021/01/10 03:49:08;;;;;;;17.70;4.07;;;0.20;99.90;;;;;;5028508;28;20125;-63
2021/01/10 03:51:34;;;;;;;13.48;4.95;;;0.20;99.90;;;;;;5026519;28;20035;-64
2021/01/10 03:53:59;;;;;;;18.58;4.25;;;0.20;99.90;;;;;;5024167;28;20496;-65
2021/01/10 03:56:25;;;;;;;10.35;4.75;;;0.20;99.90;;;;;;5020377;28;20563;-65
2021/01/10 03:58:50;;;;;;;15.38;4.43;;;0.10;99.90;;;;;;5022494;28;20041;-63
2021/01/10 04:01:16;;;;;;;13.80;4.43;;;0.10;99.90;;;;;;5020919;28;20041;-62
2021/01/10 04:03:41;;;;;;;14.00;4.38;;;0.10;99.90;;;;;;5020880;28;20125;-63
2021/01/10 04:06:07;;;;;;;9.77;3.67;;;0.10;99.90;;;;;;5020303;28;20044;-63
2021/01/10 04:08:32;;;;;;;7.90;3.95;;;0.10;99.90;;;;;;5018793;28;20121;-65
2021/01/10 04:10:58;;;;;;;7.13;3.75;;;0.10;99.90;;;;;;5021063;28;20060;-63
2021/01/10 04:13:23;;;;;;;8.95;3.72;;;0.00;99.90;;;;;;5019664;28;20084;-63
2021/01/10 04:15:49;;;;;;;10.85;4.18;;;0.00;99.90;;;;;;5021780;28;20078;-64
2021/01/10 04:18:14;;;;;;;12.85;4.13;;;0.00;99.90;;;;;;5020484;28;20402;-62
2021/01/10 04:20:40;;;;;;;8.10;3.58;;;0.00;99.90;;;;;;5019488;28;20061;-63
2021/01/10 04:23:05;;;;;;;8.38;3.42;;;-0.10;99.90;;;;;;5021954;28;20026;-63
2021/01/10 04:25:31;;;;;;;10.02;4.22;;;-0.10;99.90;;;;;;5022132;28;20133;-65
2021/01/10 04:27:56;;;;;;;9.25;4.18;;;-0.10;99.90;;;;;;5018647;28;20026;-63
2021/01/10 04:30:22;;;;;;;10.25;3.97;;;-0.20;99.90;;;;;;5022425;28;20037;-63
2021/01/10 04:32:48;;;;;;;8.48;4.03;;;-0.20;99.90;;;;;;5020004;28;20038;-63
2021/01/10 04:35:13;;;;;;;6.25;3.47;;;-0.20;99.90;;;;;;5021012;28;20038;-63
2021/01/10 04:37:39;;;;;;;14.85;4.32;;;-0.30;99.90;;;;;;5021078;28;20030;-63
2021/01/10 04:40:05;;;;;;;10.13;3.75;;;-0.30;99.90;;;;;;5019615;28;20034;-63
2021/01/10 04:42:33;;;;;;;13.85;3.83;;;-0.30;99.90;;;;;;5020436;28;20038;-63
2021/01/10 04:44:58;;;;;;;8.60;4.03;;;-0.30;99.90;;;;;;5019001;28;20386;-63
2021/01/10 04:47:24;;;;;;;12.27;4.85;;;-0.40;99.90;;;;;;5022215;28;20025;-66
2021/01/10 04:49:50;;;;;;;10.32;3.90;;;-0.40;99.90;;;;;;5019585;28;20084;-62
2021/01/10 04:52:19;;;;;;;11.18;4.05;;;-0.40;99.90;;;;;;5019394;28;20026;-64
2021/01/10 04:54:46;;;;;;;8.27;3.40;;;-0.50;99.90;;;;;;5019720;28;20084;-63
2021/01/10 04:57:13;;;;;;;11.85;4.40;;;-0.50;99.90;;;;;;5020483;28;20434;-63
2021/01/10 04:59:42;;;;;;;9.50;3.95;;;-0.50;99.90;;;;;;5025150;28;20239;-65
2021/01/10 05:02:09;;;;;;;13.30;4.20;;;-0.40;99.90;;;;;;5027287;28;20033;-66
2021/01/10 05:04:36;;;;;;;11.23;3.92;;;-0.40;99.90;;;;;;5027481;28;20037;-63
2021/01/10 05:07:03;;;;;;;9.77;4.32;;;-0.40;99.90;;;;;;5017464;28;20030;-63
2021/01/10 05:09:30;;;;;;;8.90;4.00;;;-0.30;99.90;;;;;;5021869;28;20427;-63
2021/01/10 05:11:55;;;;;;;9.75;4.10;;;-0.30;99.90;;;;;;5018357;28;20072;-64
2021/01/10 05:14:21;;;;;;;8.40;3.83;;;-0.40;99.90;;;;;;5022386;28;20030;-63
2021/01/10 05:16:47;;;;;;;9.25;4.05;;;-0.40;99.90;;;;;;5021183;28;20040;-63
2021/01/10 05:19:19;;;;;;;9.48;3.58;;;-0.40;99.90;;;;;;5019219;28;20033;-62
2021/01/10 05:21:45;;;;;;;16.80;3.80;;;-0.50;99.90;;;;;;5021046;28;20034;-63
2021/01/10 05:24:16;;;;;;;9.45;3.75;;;-0.50;99.90;;;;;;5018289;28;20048;-65
2021/01/10 05:26:42;;;;;;;7.15;3.30;;;-0.60;99.90;;;;;;5020603;28;20033;-64
2021/01/10 05:29:09;;;;;;;7.63;3.47;;;-0.60;99.90;;;;;;5018034;28;20037;-66
2021/01/10 05:31:35;;;;;;;8.25;3.45;;;-0.70;99.90;;;;;;5018547;28;20048;-65
2021/01/10 05:34:01;;;;;;;7.72;3.83;;;-0.70;99.90;;;;;;5020547;28;20386;-65
2021/01/10 05:36:32;;;;;;;11.60;3.67;;;-0.70;99.90;;;;;;5017054;28;20503;-65
2021/01/10 05:39:13;;;;;;;11.43;3.90;;;-0.70;99.90;;;;;;5021465;28;20038;-65
2021/01/10 05:41:40;;;;;;;;;;;-0.60;99.90;;;;;;5021234;28;20429;-65
2021/01/10 05:44:05;;;;;;;6.72;3.50;;;-0.50;99.90;;;;;;5018297;28;20012;-65
2021/01/10 05:46:32;;;;;;;14.73;3.92;;;-0.50;99.90;;;;;;5018091;28;20189;-64
2021/01/10 05:48:58;;;;;;;12.60;3.70;;;-0.40;99.90;;;;;;5020237;28;20646;-65
2021/01/10 05:51:28;;;;;;;8.80;3.42;;;-0.40;99.90;;;;;;5020533;28;20112;-65
2021/01/10 05:53:54;;;;;;;8.33;3.60;;;-0.30;99.90;;;;;;5020657;28;20498;-64
2021/01/10 05:56:19;;;;;;;8.88;4.03;;;-0.30;99.90;;;;;;5020585;28;20068;-65
2021/01/10 05:58:54;;;;;;;6.75;3.60;;;-0.20;99.90;;;;;;5017616;28;20030;-64
2021/01/10 06:01:22;;;;;;;11.93;3.38;;;-0.20;99.90;;;;;;5021005;28;20042;-65
2021/01/10 06:03:48;;;;;;;9.07;4.00;;;-0.20;99.90;;;;;;5016664;28;20405;-64
2021/01/10 06:06:14;;;;;;;8.75;3.35;;;-0.20;99.90;;;;;;5019132;28;20060;-64
2021/01/10 06:08:40;;;;;;;9.48;3.78;;;-0.10;99.90;;;;;;5018537;28;20068;-65
2021/01/10 06:11:19;;;;;;;12.43;3.10;;;-0.10;99.90;;;;;;5023547;28;20400;-65
2021/01/10 06:13:48;;;;;;;10.07;3.63;;;-0.10;99.90;;;;;;5023221;28;20026;-65
2021/01/10 06:16:16;;;;;;;7.50;4.07;;;-0.10;99.90;;;;;;5019562;28;20092;-65
2021/01/10 06:19:05;;;;;;;7.35;3.10;;;-0.10;99.90;;;;;;5018491;28;20119;-65
2021/01/10 06:21:33;;;;;;;6.57;3.17;;;-0.10;99.90;;;;;;5020851;28;20040;-65
2021/01/10 06:24:01;;;;;;;14.13;3.83;;;-0.20;99.90;;;;;;5017918;28;20513;-64
2021/01/10 06:26:28;;;;;;;8.43;3.30;;;-0.20;99.90;;;;;;5019631;28;20052;-65
2021/01/10 06:28:56;;;;;;;9.27;3.42;;;-0.20;99.90;;;;;;5017205;28;20034;-63
2021/01/10 06:31:31;;;;;;;11.20;4.50;;;-0.20;99.90;;;;;;5020535;28;20124;-64
2021/01/10 06:34:01;;;;;;;7.53;3.92;;;-0.20;99.90;;;;;;5015853;28;20076;-64
2021/01/10 06:36:29;;;;;;;10.93;3.88;;;-0.20;99.90;;;;;;5019836;28;20033;-64
2021/01/10 06:39:01;;;;;;;13.70;3.90;;;-0.20;99.90;;;;;;5015667;28;20443;-65
2021/01/10 06:41:35;;;;;;;8.63;3.20;;;-0.20;99.90;;;;;;5019653;28;20061;-65
2021/01/10 06:44:06;;;;;;;9.07;3.47;;;-0.20;99.90;;;;;;5016783;28;20053;-65
2021/01/10 06:46:32;;;;;;;9.10;3.58;;;-0.20;99.90;;;;;;5018873;28;20044;-65
2021/01/10 06:49:00;;;;;;;10.40;4.15;;;-0.20;99.90;;;;;;5020877;28;20045;-65
2021/01/10 06:51:27;;;;;;;8.73;4.50;;;-0.20;99.90;;;;;;5019615;28;20553;-65
2021/01/10 06:53:54;;;;;;;10.40;3.78;;;-0.10;99.90;;;;;;5018885;28;20041;-65
2021/01/10 06:56:19;;;;;;;9.30;3.70;;;-0.10;99.90;;;;;;5018758;28;20042;-65
2021/01/10 06:59:01;;;;;;;8.13;4.35;;;-0.10;99.90;;;;;;5022238;28;20036;-63
2021/01/10 07:01:53;;;;;;;9.45;3.58;;;0.00;99.90;;;;;;5021150;28;20052;-63
2021/01/10 07:04:45;;;;;;;11.52;4.38;;;0.00;99.90;;;;;;5020266;28;20379;-65
2021/01/10 07:07:36;;;;;;;8.45;3.05;;;0.10;99.90;;;;;;5020648;28;20100;-65
2021/01/10 07:10:08;;;;;;;7.88;3.88;;;0.10;99.90;;;;;;5018006;28;20049;-64
2021/01/10 07:12:34;;;;;;;10.30;3.83;;;0.20;99.90;;;;;;5018305;28;20041;-64
2021/01/10 07:15:18;;;;;;;8.98;4.05;;;0.20;99.90;;;;;;5017684;28;20034;-65
2021/01/10 07:18:05;;;;;;;14.40;4.82;;;0.30;99.90;;;;;;5020286;28;20479;-64
2021/01/10 07:20:39;;;;;;;8.13;3.38;;;0.30;99.90;;;;;;5024932;28;20025;-65
2021/01/10 07:23:24;;;;;;;11.77;3.90;;;0.40;99.90;;;;;;5030663;28;20030;-65
2021/01/10 07:25:50;;;;;;;11.10;3.67;;;0.40;99.90;;;;;;5030591;28;20051;-64
2021/01/10 07:28:35;;;;;;;12.25;3.97;;;0.50;99.90;;;;;;5020713;28;20038;-64
2021/01/10 07:31:15;;;;;;;6.65;3.35;;;0.50;99.90;;;;;;5024261;28;20037;-65
2021/01/10 07:33:41;;;;;;;7.88;4.35;;;0.60;99.90;;;;;;5021377;28;20037;-65
2021/01/10 07:36:07;;;;;;;9.13;4.20;;;0.60;99.90;;;;;;5021399;28;20025;-65
2021/01/10 07:38:35;;;;;;;7.78;3.53;;;0.60;99.90;;;;;;5020898;28;20038;-65
2021/01/10 07:41:27;;;;;;;16.08;4.47;;;0.60;99.90;;;;;;5020909;28;20036;-65
2021/01/10 07:43:55;;;;;;;10.13;4.03;;;0.60;99.90;;;;;;5023329;28;20033;-65
2021/01/10 07:46:52;;;;;;;7.28;4.22;;;0.60;99.90;;;;;;5020325;28;20088;-66
2021/01/10 07:49:22;;;;;;;7.90;3.90;;;0.60;99.90;;;;;;5024800;28;20091;-63
2021/01/10 07:51:48;;;;;;;;;;;0.70;99.90;;;;;;5042097;28;20551;-65
2021/01/10 07:54:14;;;;;;;10.80;3.75;;;0.70;99.90;;;;;;5028699;28;19925;-64
2021/01/10 07:56:40;;;;;;;8.13;4.03;;;0.70;99.90;;;;;;5028221;28;20364;-64
2021/01/10 07:59:16;;;;;;;8.93;4.05;;;0.70;99.90;;;;;;5025770;28;20045;-65
2021/01/10 08:01:51;;;;;;;8.43;3.58;;;0.80;99.90;;;;;;5023920;28;20083;-65
2021/01/10 08:04:46;;;;;;;8.63;4.07;;;0.80;99.90;;;;;;5023719;28;20091;-64
2021/01/10 08:07:24;;;;;;;14.23;4.13;;;0.80;99.90;;;;;;5021589;28;20041;-65
2021/01/10 08:09:56;;;;;;;12.65;4.22;;;0.80;99.90;;;;;;5026024;28;20045;-65
2021/01/10 08:12:31;;;;;;;12.63;4.65;;;0.90;99.90;;;;;;5036727;28;20437;-65
2021/01/10 08:15:04;;;;;;;6.65;3.55;;;0.90;99.90;;;;;;5019397;28;20033;-65
2021/01/10 08:17:31;;;;;;;10.65;3.70;;;0.90;99.90;;;;;;5028069;28;20060;-65
2021/01/10 08:19:59;;;;;;;9.18;4.50;;;0.90;99.90;;;;;;5026148;28;20494;-63
2021/01/10 08:22:25;;;;;;;7.85;3.25;;;0.90;99.90;;;;;;5022077;28;20064;-65
2021/01/10 08:24:51;;;;;;;8.85;3.40;;;0.90;99.90;;;;;;5029818;28;20037;-64
2021/01/10 08:27:17;;;;;;;8.82;4.18;;;0.90;99.90;;;;;;5025170;28;20056;-64
2021/01/10 08:29:43;;;;;;;14.43;3.13;;;0.90;99.90;;;;;;5026083;28;20056;-65
2021/01/10 08:32:10;;;;;;;7.00;3.10;;;0.90;99.90;;;;;;5022422;28;20038;-70
2021/01/10 08:34:52;;;;;;;10.27;3.33;;;1.00;99.90;;;;;;5029963;28;20117;-65
2021/01/10 08:37:21;;;;;;;9.55;2.78;;;1.00;99.90;;;;;;5032268;28;20044;-65
2021/01/10 08:40:03;;;;;;;9.65;3.00;;;1.00;99.90;;;;;;5025417;28;20033;-66
2021/01/10 08:42:33;;;;;;;11.00;3.53;;;1.10;99.90;;;;;;5024962;28;20041;-65
2021/01/10 08:45:16;;;;;;;8.15;3.38;;;1.20;99.90;;;;;;5023030;28;20041;-65
2021/01/10 08:47:44;;;;;;;7.05;3.15;;;1.30;99.90;;;;;;5030206;28;20482;-65
2021/01/10 08:50:11;;;;;;;6.60;2.53;;;1.30;99.90;;;;;;5020283;28;20048;-65
2021/01/10 08:52:51;;;;;;;9.02;2.70;;;1.30;99.90;;;;;;5022986;28;20026;-65
2021/01/10 08:55:16;;;;;;;10.75;2.80;;;1.30;99.90;;;;;;5028504;28;20034;-65
2021/01/10 08:57:42;;;;;;;8.02;2.42;;;1.30;99.90;;;;;;5023937;28;20079;-65
2021/01/10 09:00:09;;;;;;;7.45;3.10;;;1.30;99.90;;;;;;5020738;28;20061;-65
2021/01/10 09:02:35;;;;;;;6.85;2.30;;;1.40;99.90;;;;;;5023600;28;20026;-66
2021/01/10 09:05:01;;;;;;;6.88;2.97;;;1.40;99.90;;;;;;5024751;28;20025;-65
2021/01/10 09:07:29;;;;;;;13.02;3.00;;;1.50;99.90;;;;;;5026641;28;20494;-64
2021/01/10 09:10:06;;;;;;;10.18;3.00;;;1.50;99.90;;;;;;5027003;28;20470;-66
2021/01/10 09:12:53;;;;;;;6.38;2.38;;;1.60;99.90;;;;;;5028783;28;20069;-65
2021/01/10 09:15:34;;;;;;;11.73;2.40;;;1.60;99.90;;;;;;5029422;28;20063;-66
2021/01/10 09:18:14;;;;;;;4.80;2.22;;;1.70;99.90;;;;;;5026083;28;20030;-66
2021/01/10 09:21:00;;;;;;;8.07;2.97;;;1.80;99.90;;;;;;5028605;28;20057;-65
2021/01/10 09:23:27;;;;;;;13.65;2.50;;;1.80;99.90;;;;;;5026596;28;20068;-65
2021/01/10 09:25:53;;;;;;;5.10;2.38;;;1.70;99.90;;;;;;5027210;28;20037;-65
2021/01/10 09:28:21;;;;;;;7.47;2.53;;;1.70;99.90;;;;;;5021577;28;20030;-62
2021/01/10 09:30:54;;;;;;;8.68;2.47;;;1.70;99.90;;;;;;5032923;28;20038;-65
2021/01/10 09:33:25;;;;;;;7.00;3.08;;;1.70;99.90;;;;;;5034680;28;20123;-65
2021/01/10 09:35:52;;;;;;;6.95;2.83;;;1.70;99.90;;;;;;5017950;28;20042;-64
2021/01/10 09:38:19;;;;;;;14.95;3.75;;;1.80;99.90;;;;;;5019845;28;20531;-65
2021/01/10 09:41:13;;;;;;;5.38;2.70;;;1.90;99.90;;;;;;5019265;28;20132;-65
2021/01/10 09:43:51;;;;;;;6.30;2.60;;;1.90;99.90;;;;;;5017126;28;20042;-65
2021/01/10 09:46:34;;;;;;;13.48;2.75;;;2.00;99.90;;;;;;5018549;28;20071;-65
2021/01/10 09:49:04;;;;;;;7.10;2.28;;;2.10;99.90;;;;;;5017655;28;20037;-66
2021/01/10 09:51:41;;;;;;;3.13;1.25;;;2.00;99.90;;;;;;5015951;28;20045;-65
2021/01/10 09:54:17;;;;;;;6.30;2.42;;;2.10;99.90;;;;;;5021730;28;20056;-66
2021/01/10 09:56:44;;;;;;;3.47;1.80;;;2.10;99.90;;;;;;5021628;28;20593;-65
2021/01/10 09:59:51;;;;;;;5.80;1.80;;;2.20;99.90;;;;;;5023281;28;20458;-64
2021/01/10 10:02:19;;;;;;;6.10;2.75;;;2.30;99.90;;;;;;5023067;28;20034;-65
2021/01/10 10:04:49;;;;;;;5.43;2.47;;;2.40;99.90;;;;;;5016936;28;20029;-65
2021/01/10 10:07:29;;;;;;;9.55;2.50;;;2.50;99.90;;;;;;5024115;28;20085;-65
2021/01/10 10:09:55;;;;;;;6.57;2.40;;;2.60;99.90;;;;;;5026544;28;20037;-65
2021/01/10 10:12:22;;;;;;;10.90;2.08;;;2.60;99.90;;;;;;5023777;28;20117;-65
2021/01/10 10:14:51;;;;;;;5.75;2.10;;;2.70;99.90;;;;;;5027632;28;20043;-66
2021/01/10 10:17:19;;;;;;;4.68;1.70;;;2.70;99.90;;;;;;5027194;28;20030;-65
2021/01/10 10:19:44;;;;;;;5.93;1.98;;;2.80;99.90;;;;;;5026755;28;20025;-64
2021/01/10 10:22:24;;;;;;;4.65;1.60;;;2.90;99.90;;;;;;5024255;28;20041;-65
2021/01/10 10:24:50;;;;;;;8.90;2.70;;;3.00;99.90;;;;;;5024274;28;20042;-66
2021/01/10 10:27:16;;;;;;;4.53;1.85;;;3.00;99.90;;;;;;5027560;28;20119;-65
2021/01/10 10:29:41;;;;;;;5.70;2.33;;;3.20;99.90;;;;;;5026866;28;20025;-66
2021/01/10 10:32:08;;;;;;;8.55;1.80;;;3.20;99.90;;;;;;5027902;28;20498;-64
2021/01/10 10:34:34;;;;;;;5.95;1.88;;;3.30;99.90;;;;;;5028283;28;20033;-65
2021/01/10 10:37:00;;;;;;;6.53;1.60;;;3.40;99.90;;;;;;5028422;28;20401;-65
2021/01/10 10:39:26;;;;;;;5.18;1.95;;;3.50;99.90;;;;;;5028142;28;20041;-65
2021/01/10 10:41:52;;;;;;;3.30;1.67;;;3.60;99.90;;;;;;5028165;28;20026;-65
2021/01/10 10:44:18;;;;;;;5.72;1.50;;;3.70;99.90;;;;;;5027698;28;20553;-64
2021/01/10 10:46:44;;;;;;;6.45;1.75;;;3.80;99.90;;;;;;5028424;28;20129;-65
2021/01/10 10:49:10;;;;;;;6.32;1.95;;;3.80;99.90;;;;;;5027230;28;20048;-66
2021/01/10 10:51:35;;;;;;;4.30;1.75;;;3.90;99.90;;;;;;5031360;28;20038;-65
2021/01/10 10:54:01;;;;;;;6.05;1.95;;;4.00;99.90;;;;;;5029442;28;20436;-66
2021/01/10 10:56:40;;;;;;;3.30;1.35;;;4.10;99.90;;;;;;5032049;28;20041;-65
2021/01/10 10:59:06;;;;;;;5.15;1.63;;;4.20;99.90;;;;;;5030051;28;20026;-65
2021/01/10 11:01:39;;;;;;;6.95;2.38;;;4.30;99.90;;;;;;5030516;28;20537;-63
2021/01/10 11:04:05;;;;;;;5.07;2.05;;;4.30;99.90;;;;;;5031233;28;20091;-66
2021/01/10 11:06:31;;;;;;;6.63;1.48;;;4.40;99.90;;;;;;5029789;28;20398;-65
2021/01/10 11:08:56;;;;;;;3.95;1.65;;;4.50;99.90;;;;;;5032566;28;20044;-64
2021/01/10 11:11:22;;;;;;;7.03;1.92;;;4.60;99.90;;;;;;5031677;28;20025;-65
2021/01/10 11:13:48;;;;;;;6.38;2.20;;;4.70;99.90;;;;;;5031665;28;20036;-65
2021/01/10 11:16:13;;;;;;;7.72;2.05;;;4.80;99.90;;;;;;5030692;28;20470;-64
2021/01/10 11:18:39;;;;;;;6.88;2.80;;;4.70;99.90;;;;;;5028339;28;20067;-66
2021/01/10 11:21:05;;;;;;;5.13;1.88;;;4.70;99.90;;;;;;5032684;28;20032;-66
2021/01/10 11:23:31;;;;;;;4.70;2.08;;;4.70;99.90;;;;;;5029655;28;20029;-65
2021/01/10 11:25:56;;;;;;;12.30;2.10;;;4.80;99.90;;;;;;5031725;28;20033;-66
2021/01/10 11:28:22;;;;;;;6.07;1.63;;;4.90;99.90;;;;;;5031326;28;20029;-65
2021/01/10 11:30:47;;;;;;;5.25;1.85;;;5.10;99.90;;;;;;5030059;28;20043;-65
2021/01/10 11:33:13;;;;;;;7.43;1.80;;;5.20;99.90;;;;;;5031458;28;20075;-69
2021/01/10 11:35:39;;;;;;;7.78;1.60;;;5.30;99.90;;;;;;5031769;28;20104;-65
2021/01/10 11:38:05;;;;;;;4.93;1.83;;;5.30;99.90;;;;;;5029297;28;20045;-66
2021/01/10 11:40:30;;;;;;;5.97;2.22;;;5.30;99.90;;;;;;5030371;28;20055;-65
2021/01/10 11:42:56;;;;;;;7.75;1.83;;;5.10;99.90;;;;;;5026004;28;20040;-63
2021/01/10 11:45:21;;;;;;;6.80;1.98;;;5.00;99.90;;;;;;5022186;28;20061;-64
2021/01/10 11:47:47;;;;;;;3.55;1.75;;;5.10;99.90;;;;;;5029711;28;20029;-66
2021/01/10 11:50:12;;;;;;;8.73;2.38;;;5.10;99.90;;;;;;5023103;28;20034;-63
2021/01/10 11:52:38;;;;;;;5.90;1.73;;;5.20;99.90;;;;;;5022409;28;20060;-64
2021/01/10 11:55:04;;;;;;;5.28;2.38;;;5.20;99.90;;;;;;5019026;28;20101;-65
2021/01/10 11:57:29;;;;;;;5.05;2.33;;;5.30;99.90;;;;;;5021971;28;20096;-64
2021/01/10 11:59:55;;;;;;;4.65;2.17;;;5.30;99.90;;;;;;5022732;28;20025;-64
2021/01/10 12:02:20;;;;;;;7.25;2.33;;;5.40;99.90;;;;;;5017778;28;20048;-64
2021/01/10 12:04:46;;;;;;;6.68;2.38;;;5.50;99.90;;;;;;5021532;28;20113;-64
2021/01/10 12:07:11;;;;;;;5.65;2.58;;;5.50;99.90;;;;;;5021621;28;20498;-64
2021/01/10 12:09:37;;;;;;;5.65;2.33;;;5.60;99.90;;;;;;5020029;28;20532;-64
2021/01/10 12:12:02;;;;;;;6.40;2.22;;;5.60;99.90;;;;;;5023077;28;20577;-64
2021/01/10 12:14:29;;;;;;;4.30;2.13;;;5.50;99.90;;;;;;5019068;28;20034;-65
2021/01/10 12:16:54;;;;;;;4.65;2.20;;;5.40;99.90;;;;;;5021344;28;20049;-64
2021/01/10 12:19:21;;;;;;;4.20;2.13;;;5.30;99.90;;;;;;5020131;28;20502;-65
2021/01/10 12:21:48;;;;;;;8.30;2.00;;;5.20;99.90;;;;;;5025708;28;20076;-64
2021/01/10 12:24:14;;;;;;;9.68;3.63;;;5.20;99.90;;;;;;5023936;28;20044;-65
2021/01/10 12:26:39;;;;;;;4.38;1.98;;;5.20;99.90;;;;;;5027397;28;20038;-64
2021/01/10 12:29:05;;;;;;;9.77;3.05;;;5.40;99.90;;;;;;5025698;28;20116;-65
2021/01/10 12:31:30;;;;;;;6.60;1.80;;;5.40;99.90;;;;;;5023685;28;20843;-65
2021/01/10 12:33:56;;;;;;;5.15;2.40;;;5.50;99.90;;;;;;5021756;28;20041;-63
2021/01/10 12:36:24;;;;;;;8.63;2.90;;;5.50;99.90;;;;;;5018125;28;20025;-63
2021/01/10 12:38:49;;;;;;;5.78;3.08;;;5.60;99.90;;;;;;5018363;28;20475;-65
2021/01/10 12:41:15;;;;;;;8.00;2.30;;;5.50;99.90;;;;;;5020951;28;20036;-63
2021/01/10 12:43:40;;;;;;;5.43;2.55;;;5.60;99.90;;;;;;5019015;28;20649;-63
2021/01/10 12:46:06;;;;;;;6.43;2.17;;;5.60;99.90;;;;;;5022332;28;20056;-64
2021/01/10 12:48:31;;;;;;;3.63;2.00;;;5.60;99.90;;;;;;5012271;28;20030;-65
2021/01/10 12:50:57;;;;;;;9.60;3.35;;;5.60;99.90;;;;;;5022083;28;20041;-64
2021/01/10 12:53:22;;;;;;;5.22;2.47;;;5.70;99.90;;;;;;5015955;28;20033;-63
2021/01/10 12:55:51;;;;;;;5.32;2.28;;;5.70;99.90;;;;;;5014517;28;20096;-64
2021/01/10 12:58:17;;;;;;;4.82;2.50;;;5.60;99.90;;;;;;5015845;28;20034;-64